Preemption, Illinois
Current Conditions -  °F | °C
As of 3:52 AM on Sunday 23 Nov 2014 (Local Time) from KMLI Reporting Station
Overcast Overcast  
Wind Chill: 53°   Ceiling: 3100
Heat Index: 53°   Visibility: 10mi
Dew Point: 48°   Wind: 16mph
Humidity: 83%   Direction: 180°S
Pressure: 29.68"   Gusts: 23mph
Location:  41.31°N, 90.58°W
Report Text: KMLI 230952Z AUTO 18014G20KT 10SM FEW021 OVC031 12/09 A2968 RMK AO2 SLP051 T01170089 $
Loading
Personal Weather Stations






























Interactive Weather Map New forecast layout! Learn more

10-Day Weather Forecast

Advertisements
Track Severe Weather on mobile